Time;durP1;ratioP1;P1;durP2;ratioP2;P2;SDS_P1;SDS_P2;PMS_P1;PMS_P2;Temp;Humidity;BMP_temperature;BMP_pressure;BME280_temperature;BME280_humidity;BME280_pressure;Samples;Min_cycle;Max_cycle;Signal;HPM_P1;HPM_P2
2021/06/16 00:00:09;;;;;;;2.65;0.70;;;24.90;45.30;;;;;;5060951;28;20066;-74
2021/06/16 00:02:35;;;;;;;1.42;0.68;;;24.90;45.30;;;;;;5064989;28;20024;-73
2021/06/16 00:05:01;;;;;;;3.17;0.73;;;24.90;45.30;;;;;;5065281;28;20051;-72
2021/06/16 00:07:27;;;;;;;1.75;0.70;;;24.90;45.40;;;;;;5065387;28;20029;-72
2021/06/16 00:09:53;;;;;;;2.38;0.80;;;24.80;45.40;;;;;;5063611;28;20021;-73
2021/06/16 00:12:20;;;;;;;2.65;1.02;;;24.80;45.30;;;;;;5067301;28;20098;-71
2021/06/16 00:14:46;;;;;;;3.70;0.90;;;24.80;45.40;;;;;;5065155;28;20025;-71
2021/06/16 00:17:11;;;;;;;3.47;0.88;;;24.80;45.40;;;;;;5064544;28;20051;-71
2021/06/16 00:19:37;;;;;;;2.70;0.82;;;24.80;45.40;;;;;;5063251;28;20017;-71
2021/06/16 00:22:04;;;;;;;2.45;0.80;;;24.80;45.40;;;;;;5054156;28;20025;-71
2021/06/16 00:24:30;;;;;;;1.90;0.80;;;24.70;45.40;;;;;;5054596;28;20424;-71
2021/06/16 00:26:55;;;;;;;2.15;0.90;;;24.80;45.40;;;;;;5054268;28;20021;-70
2021/06/16 00:29:21;;;;;;;3.65;0.82;;;24.70;45.40;;;;;;5054236;28;20090;-71
2021/06/16 00:31:46;;;;;;;4.88;1.45;;;24.70;45.40;;;;;;5054060;28;20033;-71
2021/06/16 00:34:12;;;;;;;1.48;0.60;;;24.80;45.50;;;;;;5056400;28;20503;-71
2021/06/16 00:36:38;;;;;;;2.80;0.80;;;24.70;45.50;;;;;;5064550;28;20465;-71
2021/06/16 00:39:07;;;;;;;1.77;0.77;;;24.70;45.40;;;;;;5064472;28;20029;-71
2021/06/16 00:41:33;;;;;;;2.92;0.73;;;24.70;45.40;;;;;;5057432;28;20025;-71
2021/06/16 00:43:59;;;;;;;3.05;0.68;;;24.70;45.40;;;;;;5053274;28;20037;-71
2021/06/16 00:46:24;;;;;;;2.45;0.90;;;24.70;45.40;;;;;;5053596;28;20037;-71
2021/06/16 00:48:50;;;;;;;2.60;0.93;;;24.70;45.50;;;;;;5053476;28;20028;-71
2021/06/16 00:51:15;;;;;;;2.90;0.82;;;24.60;45.40;;;;;;5053648;28;20055;-71
2021/06/16 00:53:41;;;;;;;3.20;1.02;;;24.60;45.40;;;;;;5052936;28;20024;-69
2021/06/16 00:56:07;;;;;;;2.42;0.70;;;24.60;45.40;;;;;;5053484;28;20100;-71
2021/06/16 00:58:33;;;;;;;1.98;0.80;;;24.60;45.40;;;;;;5053447;28;20021;-71
2021/06/16 01:01:02;;;;;;;3.22;0.85;;;24.60;45.40;;;;;;5053107;28;20477;-71
2021/06/16 01:03:34;;;;;;;2.55;0.75;;;24.60;45.40;;;;;;5053515;28;20060;-71
2021/06/16 01:06:25;;;;;;;2.65;0.80;;;24.60;45.40;;;;;;5053662;28;20036;-71
2021/06/16 01:09:14;;;;;;;2.63;0.60;;;24.60;45.40;;;;;;5053326;28;20040;-71
2021/06/16 01:12:18;;;;;;;2.22;0.88;;;24.60;45.50;;;;;;5043736;28;20400;-71
2021/06/16 01:14:54;;;;;;;2.23;0.90;;;24.50;45.40;;;;;;5030157;28;20052;-71
2021/06/16 01:17:34;;;;;;;3.90;0.90;;;24.50;45.40;;;;;;5053199;28;20804;-71
2021/06/16 01:19:59;;;;;;;2.20;0.82;;;24.50;45.40;;;;;;5053177;28;20123;-71
2021/06/16 01:22:42;;;;;;;2.97;0.77;;;24.50;45.40;;;;;;5053191;28;20444;-71
2021/06/16 01:25:24;;;;;;;3.13;0.90;;;24.50;45.50;;;;;;5053093;28;20117;-71
2021/06/16 01:27:52;;;;;;;1.90;0.80;;;24.40;45.60;;;;;;5053140;28;20024;-71
2021/06/16 01:30:18;;;;;;;2.85;0.88;;;24.40;45.70;;;;;;5052948;28;20464;-71
2021/06/16 01:32:45;;;;;;;3.40;0.80;;;24.40;45.70;;;;;;5053098;28;20037;-70
2021/06/16 01:35:11;;;;;;;1.95;0.70;;;24.40;45.70;;;;;;5053047;28;20021;-71
2021/06/16 01:37:37;;;;;;;2.47;0.77;;;24.40;45.70;;;;;;5053121;28;20434;-71
2021/06/16 01:40:03;;;;;;;2.35;0.90;;;24.40;45.80;;;;;;5051677;28;20496;-71
2021/06/16 01:42:31;;;;;;;1.30;0.55;;;24.40;45.70;;;;;;5052903;28;20036;-73
2021/06/16 01:44:57;;;;;;;2.70;0.70;;;24.30;45.80;;;;;;5052723;28;20044;-71
2021/06/16 01:47:23;;;;;;;2.28;0.85;;;24.30;45.80;;;;;;5052862;28;20029;-71
2021/06/16 01:49:53;;;;;;;3.13;0.93;;;24.30;45.80;;;;;;5052906;28;20357;-71
2021/06/16 01:52:21;;;;;;;3.58;1.00;;;24.30;45.80;;;;;;5053185;28;20037;-70
2021/06/16 01:54:47;;;;;;;2.28;0.93;;;24.30;45.80;;;;;;5052879;28;20104;-71
2021/06/16 01:57:12;;;;;;;1.38;0.50;;;24.30;45.90;;;;;;5053051;28;20118;-71
2021/06/16 01:59:43;;;;;;;2.72;0.85;;;24.30;45.80;;;;;;5052844;28;20021;-72
2021/06/16 02:02:09;;;;;;;1.40;0.60;;;24.30;45.80;;;;;;5053186;28;20108;-71
2021/06/16 02:04:35;;;;;;;3.15;0.88;;;24.30;45.80;;;;;;5060689;28;20029;-73
2021/06/16 02:07:12;;;;;;;3.15;1.08;;;24.30;45.80;;;;;;5063417;28;20358;-71
2021/06/16 02:09:38;;;;;;;1.42;0.73;;;24.30;45.80;;;;;;5056028;28;20037;-73
2021/06/16 02:12:09;;;;;;;3.47;0.70;;;24.30;45.80;;;;;;5056895;28;20045;-73
2021/06/16 02:14:35;;;;;;;2.35;0.60;;;24.20;45.80;;;;;;5057366;28;20060;-73
2021/06/16 02:17:10;;;;;;;1.85;0.68;;;24.20;45.90;;;;;;5055401;28;20029;-72
2021/06/16 02:19:37;;;;;;;2.72;0.93;;;24.20;45.80;;;;;;5058398;28;20516;-73
2021/06/16 02:22:05;;;;;;;2.63;0.70;;;24.20;45.80;;;;;;5058592;28;20033;-73
2021/06/16 02:24:31;;;;;;;3.10;0.90;;;24.20;45.90;;;;;;5056520;28;20060;-73
2021/06/16 02:26:57;;;;;;;3.20;1.10;;;24.10;45.90;;;;;;5056520;28;20061;-70
2021/06/16 02:29:24;;;;;;;2.50;1.00;;;24.10;45.90;;;;;;5056539;28;20487;-73
2021/06/16 02:31:50;;;;;;;1.58;0.60;;;24.20;45.90;;;;;;5056298;28;20085;-73
2021/06/16 02:34:16;;;;;;;1.55;0.73;;;24.10;45.90;;;;;;5056566;28;20071;-73
2021/06/16 02:36:46;;;;;;;3.40;0.80;;;24.10;46.00;;;;;;5056444;28;20536;-73
2021/06/16 02:39:18;;;;;;;4.03;0.80;;;24.10;45.90;;;;;;5056402;28;20029;-71
2021/06/16 02:41:46;;;;;;;3.50;1.10;;;24.10;46.00;;;;;;5056301;28;20060;-73
2021/06/16 02:44:13;;;;;;;3.85;0.70;;;24.10;46.00;;;;;;5056233;28;20484;-73
2021/06/16 02:46:42;;;;;;;1.40;0.80;;;24.10;46.00;;;;;;5056331;28;20431;-74
2021/06/16 02:49:09;;;;;;;2.80;0.80;;;24.10;45.90;;;;;;5056471;28;20528;-73
2021/06/16 02:51:39;;;;;;;1.83;0.80;;;24.10;46.10;;;;;;5056460;28;20037;-71
2021/06/16 02:54:09;;;;;;;3.05;1.00;;;24.00;46.00;;;;;;5056986;28;20357;-71
2021/06/16 02:56:38;;;;;;;1.35;0.70;;;24.10;46.00;;;;;;5058606;28;20025;-71
2021/06/16 02:59:04;;;;;;;2.10;0.80;;;24.00;46.10;;;;;;5067181;28;20116;-72
2021/06/16 03:01:31;;;;;;;2.88;0.88;;;24.00;46.10;;;;;;5057698;28;20376;-73
2021/06/16 03:03:59;;;;;;;2.90;0.82;;;24.00;46.10;;;;;;5054491;28;20024;-73
2021/06/16 03:06:25;;;;;;;2.05;0.98;;;24.00;46.10;;;;;;5055714;28;20503;-73
2021/06/16 03:08:54;;;;;;;2.30;0.90;;;23.90;46.10;;;;;;5055747;28;20028;-73
2021/06/16 03:11:20;;;;;;;2.10;0.80;;;24.00;46.20;;;;;;5055586;28;20037;-73
2021/06/16 03:13:47;;;;;;;1.70;0.75;;;23.90;46.20;;;;;;5055788;28;20105;-71
2021/06/16 03:16:14;;;;;;;4.03;0.82;;;23.90;46.10;;;;;;5055249;28;20052;-73
2021/06/16 03:18:42;;;;;;;2.80;0.90;;;23.90;46.10;;;;;;5055739;28;20108;-73
2021/06/16 03:21:08;;;;;;;3.20;0.70;;;23.90;46.20;;;;;;5055366;28;20025;-73
2021/06/16 03:23:34;;;;;;;1.55;0.70;;;23.90;46.10;;;;;;5071055;28;20110;-73
2021/06/16 03:26:01;;;;;;;1.60;0.60;;;23.90;46.10;;;;;;5055315;28;20480;-73
2021/06/16 03:28:28;;;;;;;2.65;0.85;;;23.90;46.10;;;;;;5055520;28;20396;-73
2021/06/16 03:30:57;;;;;;;3.28;0.68;;;23.90;46.10;;;;;;5055345;28;20451;-73
2021/06/16 03:33:23;;;;;;;1.83;0.90;;;23.90;46.20;;;;;;5055237;28;20426;-72
2021/06/16 03:35:50;;;;;;;1.90;0.80;;;23.90;46.10;;;;;;5055492;28;20021;-72
2021/06/16 03:38:16;;;;;;;1.17;0.65;;;23.90;46.10;;;;;;5055377;28;20021;-71
2021/06/16 03:40:43;;;;;;;1.48;0.70;;;23.90;46.20;;;;;;5055760;28;20025;-73
2021/06/16 03:43:09;;;;;;;2.92;0.95;;;23.90;46.10;;;;;;5070403;28;20021;-73
2021/06/16 03:45:36;;;;;;;1.55;0.80;;;23.90;46.20;;;;;;5053375;28;20049;-73
2021/06/16 03:48:03;;;;;;;2.10;0.70;;;23.80;46.10;;;;;;5053793;28;20021;-73
2021/06/16 03:50:30;;;;;;;2.20;0.80;;;23.80;46.20;;;;;;5054955;28;20067;-73
2021/06/16 03:52:56;;;;;;;2.55;0.93;;;23.80;46.10;;;;;;5054859;28;20084;-73
2021/06/16 03:55:23;;;;;;;3.38;1.00;;;23.80;46.20;;;;;;5054801;28;20024;-73
2021/06/16 03:57:49;;;;;;;3.42;1.00;;;23.80;46.20;;;;;;5054707;28;20029;-73
2021/06/16 04:00:15;;;;;;;1.40;0.80;;;23.80;46.10;;;;;;5055020;28;20031;-71
2021/06/16 04:02:41;;;;;;;3.08;0.95;;;23.80;46.10;;;;;;5054703;28;20025;-73
2021/06/16 04:05:09;;;;;;;2.78;0.90;;;23.80;46.10;;;;;;5054446;28;20126;-73
2021/06/16 04:07:38;;;;;;;2.53;1.05;;;23.80;46.10;;;;;;5063619;28;20021;-75
2021/06/16 04:10:06;;;;;;;1.90;0.80;;;23.80;46.20;;;;;;5062223;28;20025;-73
2021/06/16 04:12:32;;;;;;;2.15;0.93;;;23.80;46.20;;;;;;5054244;28;20115;-73
2021/06/16 04:14:57;;;;;;;3.38;0.93;;;23.80;46.10;;;;;;5054269;28;20061;-73
2021/06/16 04:17:24;;;;;;;1.58;0.70;;;23.70;46.10;;;;;;5054034;28;20066;-73
2021/06/16 04:19:51;;;;;;;2.42;0.80;;;23.70;46.10;;;;;;5054179;28;20519;-73
2021/06/16 04:22:17;;;;;;;1.45;0.70;;;23.80;46.10;;;;;;5053962;28;20023;-73
2021/06/16 04:24:43;;;;;;;1.63;0.80;;;23.70;46.10;;;;;;5054053;28;20021;-73
2021/06/16 04:27:09;;;;;;;2.92;1.10;;;23.70;46.20;;;;;;5053873;28;20033;-73
2021/06/16 04:29:36;;;;;;;2.75;0.93;;;23.70;46.20;;;;;;5053440;28;20025;-73
2021/06/16 04:32:02;;;;;;;3.25;0.90;;;23.70;46.30;;;;;;5053775;28;20033;-73
2021/06/16 04:34:28;;;;;;;3.35;0.88;;;23.70;46.20;;;;;;5053789;28;20461;-73
2021/06/16 04:36:54;;;;;;;1.77;0.73;;;23.70;46.20;;;;;;5053683;28;20217;-73
2021/06/16 04:39:19;;;;;;;2.45;0.80;;;23.70;46.30;;;;;;5053835;28;20473;-73
2021/06/16 04:41:45;;;;;;;1.85;0.77;;;23.70;46.20;;;;;;5053767;28;20078;-73
2021/06/16 04:44:12;;;;;;;2.28;0.80;;;23.70;46.20;;;;;;5053439;28;20047;-73
2021/06/16 04:46:38;;;;;;;1.88;0.73;;;23.70;46.10;;;;;;5053423;28;20036;-73
2021/06/16 04:49:04;;;;;;;3.05;1.00;;;23.70;46.20;;;;;;5053624;28;20120;-73
2021/06/16 04:51:29;;;;;;;2.30;0.93;;;23.70;46.20;;;;;;5053291;28;20029;-71
2021/06/16 04:53:55;;;;;;;1.98;0.73;;;23.70;46.20;;;;;;5053405;28;20392;-71
2021/06/16 04:56:21;;;;;;;2.80;0.93;;;23.60;46.20;;;;;;5053488;28;20025;-72
2021/06/16 04:58:46;;;;;;;1.92;0.70;;;23.70;46.20;;;;;;5053509;28;20078;-73
2021/06/16 05:01:12;;;;;;;3.85;0.90;;;23.60;46.20;;;;;;5053303;28;20484;-73
2021/06/16 05:03:37;;;;;;;2.53;0.70;;;23.70;46.20;;;;;;5059435;28;20369;-73
2021/06/16 05:06:04;;;;;;;3.00;0.90;;;23.70;46.10;;;;;;5062200;28;20029;-73
2021/06/16 05:08:30;;;;;;;1.45;0.75;;;23.60;46.20;;;;;;5054656;28;20442;-73
2021/06/16 05:10:55;;;;;;;2.15;0.70;;;23.70;46.20;;;;;;5053392;28;20061;-73
2021/06/16 05:13:25;;;;;;;1.65;0.88;;;23.70;46.10;;;;;;5053083;28;20017;-73
2021/06/16 05:15:51;;;;;;;2.20;0.75;;;23.60;46.20;;;;;;5052960;28;20028;-73
2021/06/16 05:18:17;;;;;;;4.47;1.00;;;23.60;46.10;;;;;;5053454;28;20064;-72
2021/06/16 05:20:43;;;;;;;3.97;1.20;;;23.70;46.10;;;;;;5053426;28;20418;-73
2021/06/16 05:23:09;;;;;;;2.00;0.80;;;23.60;46.00;;;;;;5053266;28;20029;-73
2021/06/16 05:25:35;;;;;;;1.15;0.60;;;23.70;46.00;;;;;;5052845;28;20086;-73
2021/06/16 05:28:00;;;;;;;2.80;0.88;;;23.70;46.10;;;;;;5052704;28;20029;-73
2021/06/16 05:30:26;;;;;;;3.50;0.90;;;23.60;46.10;;;;;;5053280;28;20025;-73
2021/06/16 05:32:51;;;;;;;3.20;0.98;;;23.70;46.10;;;;;;5053301;28;20033;-72
2021/06/16 05:35:18;;;;;;;3.03;0.80;;;23.70;46.00;;;;;;5052801;28;20024;-73
2021/06/16 05:37:45;;;;;;;2.63;0.75;;;23.60;46.10;;;;;;5053021;28;20079;-73
2021/06/16 05:40:11;;;;;;;3.03;0.70;;;23.70;46.00;;;;;;5055569;28;20029;-73
2021/06/16 05:42:37;;;;;;;2.60;0.90;;;23.70;46.00;;;;;;5057877;28;20491;-73
2021/06/16 05:45:03;;;;;;;1.90;1.00;;;23.60;46.00;;;;;;5058249;28;20041;-73
2021/06/16 05:47:32;;;;;;;2.05;0.82;;;23.70;46.00;;;;;;5058467;28;20079;-73
2021/06/16 05:49:58;;;;;;;2.13;0.77;;;23.70;46.00;;;;;;5057243;28;20021;-73
2021/06/16 05:52:23;;;;;;;2.80;0.82;;;23.60;46.10;;;;;;5060108;28;20102;-73
2021/06/16 05:54:49;;;;;;;2.58;0.98;;;23.60;46.10;;;;;;5056686;28;20100;-73
2021/06/16 05:57:14;;;;;;;1.73;0.68;;;23.70;46.00;;;;;;5056923;28;20103;-73
2021/06/16 05:59:40;;;;;;;2.13;0.90;;;23.70;45.80;;;;;;5055430;28;20111;-73
2021/06/16 06:02:05;;;;;;;3.00;0.85;;;23.80;45.70;;;;;;5056685;28;20094;-71
2021/06/16 06:04:31;;;;;;;2.55;1.00;;;23.80;45.70;;;;;;5056886;28;20029;-72
2021/06/16 06:06:58;;;;;;;2.58;0.73;;;23.70;45.80;;;;;;5055313;28;20481;-73
2021/06/16 06:09:23;;;;;;;1.77;0.80;;;23.70;45.80;;;;;;5056759;28;20028;-73
2021/06/16 06:11:49;;;;;;;2.35;0.77;;;23.70;45.80;;;;;;5056572;28;20106;-72
2021/06/16 06:14:14;;;;;;;4.00;1.00;;;23.70;45.80;;;;;;5056649;28;20025;-73
2021/06/16 06:16:40;;;;;;;1.15;0.50;;;23.70;45.90;;;;;;5065708;28;20067;-72
2021/06/16 06:19:05;;;;;;;2.35;0.90;;;23.70;45.90;;;;;;5071698;28;20381;-73
2021/06/16 06:21:31;;;;;;;2.50;0.77;;;23.80;45.80;;;;;;5056185;28;20021;-73
2021/06/16 06:23:58;;;;;;;2.58;0.90;;;23.80;45.80;;;;;;5055771;28;20021;-72
2021/06/16 06:26:24;;;;;;;3.75;1.00;;;23.80;45.70;;;;;;5056039;28;20024;-72
2021/06/16 06:28:50;;;;;;;2.25;0.90;;;23.80;45.70;;;;;;5055116;28;20027;-72
2021/06/16 06:31:15;;;;;;;3.10;1.10;;;23.80;45.60;;;;;;5055672;28;20125;-72
2021/06/16 06:33:41;;;;;;;2.72;1.00;;;23.80;45.70;;;;;;5043041;28;20123;-72
2021/06/16 06:36:06;;;;;;;2.85;0.90;;;23.80;45.70;;;;;;5055579;28;20040;-72
2021/06/16 06:38:32;;;;;;;3.58;0.70;;;23.80;45.70;;;;;;5055691;28;20025;-72
2021/06/16 06:40:57;;;;;;;2.25;0.85;;;23.80;45.70;;;;;;5055666;28;20500;-72
2021/06/16 06:43:23;;;;;;;3.15;1.00;;;23.80;45.80;;;;;;5055858;28;20032;-67
2021/06/16 06:45:48;;;;;;;5.38;1.98;;;23.70;46.00;;;;;;5031254;28;20046;-70
2021/06/16 06:48:14;;;;;;;8.77;2.75;;;23.60;47.20;;;;;;5023002;28;20033;-67
2021/06/16 06:50:39;;;;;;;7.07;2.40;;;23.50;48.00;;;;;;5034492;28;20373;-68
2021/06/16 06:53:05;;;;;;;10.40;2.70;;;23.30;48.50;;;;;;5033305;28;20037;-68
2021/06/16 06:55:30;;;;;;;8.90;3.00;;;23.30;48.90;;;;;;5032649;28;20025;-67
2021/06/16 06:57:56;;;;;;;9.40;2.88;;;23.30;49.10;;;;;;5034172;28;20056;-73
2021/06/16 07:00:22;;;;;;;6.15;2.78;;;23.30;49.00;;;;;;5035382;28;20025;-69
2021/06/16 07:02:48;;;;;;;10.52;3.13;;;23.40;49.10;;;;;;5033911;28;20397;-69
2021/06/16 07:05:14;;;;;;;15.10;2.97;;;23.40;49.10;;;;;;5028893;28;20026;-68
2021/06/16 07:07:40;;;;;;;12.10;3.78;;;23.50;49.00;;;;;;5024431;28;20045;-69
2021/06/16 07:10:06;;;;;;;10.43;3.13;;;23.30;49.80;;;;;;5026008;28;20030;-65
2021/06/16 07:12:31;;;;;;;11.25;3.40;;;23.30;49.90;;;;;;5024751;28;20077;-64
2021/06/16 07:14:57;;;;;;;16.55;3.33;;;23.50;49.40;;;;;;5024789;28;20045;-70
2021/06/16 07:17:23;;;;;;;10.65;3.25;;;23.40;50.20;;;;;;5022918;28;20037;-71
2021/06/16 07:19:50;;;;;;;8.73;3.00;;;23.30;50.40;;;;;;5022831;28;20022;-70
2021/06/16 07:22:15;;;;;;;12.60;3.60;;;23.20;50.80;;;;;;5024574;28;20484;-71
2021/06/16 07:24:41;;;;;;;11.10;3.15;;;23.10;50.70;;;;;;5026835;28;20040;-69
2021/06/16 07:27:07;;;;;;;11.35;3.00;;;23.10;51.10;;;;;;5025453;28;20087;-71
2021/06/16 07:29:33;;;;;;;10.43;3.42;;;23.30;50.60;;;;;;5040438;28;20029;-69
2021/06/16 07:31:59;;;;;;;11.82;3.30;;;23.30;50.70;;;;;;5005838;28;20052;-69
2021/06/16 07:34:25;;;;;;;10.32;3.33;;;23.20;50.70;;;;;;5025185;28;20108;-67
2021/06/16 07:36:52;;;;;;;11.40;3.22;;;23.20;50.80;;;;;;5004341;28;20557;-68
2021/06/16 07:39:17;;;;;;;12.38;3.67;;;23.30;50.30;;;;;;5013904;28;20027;-68
2021/06/16 07:41:43;;;;;;;11.70;3.40;;;23.20;50.20;;;;;;5010933;28;20038;-68
2021/06/16 07:44:08;;;;;;;12.57;3.22;;;23.30;50.10;;;;;;5024221;28;20489;-68
2021/06/16 07:46:34;;;;;;;7.85;2.65;;;23.40;49.80;;;;;;5052530;28;20113;-68
2021/06/16 07:48:59;;;;;;;9.85;2.28;;;23.50;49.50;;;;;;5044798;28;20033;-68
2021/06/16 07:51:25;;;;;;;8.80;2.17;;;23.50;49.10;;;;;;5048203;28;20053;-71
2021/06/16 07:53:50;;;;;;;11.07;2.50;;;23.60;48.80;;;;;;5048883;28;20025;-71
2021/06/16 07:56:16;;;;;;;8.10;2.28;;;23.70;48.50;;;;;;5040785;28;20495;-72
2021/06/16 07:58:41;;;;;;;6.47;2.03;;;23.70;48.50;;;;;;5062625;28;20029;-68
2021/06/16 08:01:07;;;;;;;6.50;2.25;;;23.70;48.60;;;;;;5062476;28;20111;-72
2021/06/16 08:03:33;;;;;;;6.85;2.00;;;23.80;48.30;;;;;;5064188;28;20053;-70
2021/06/16 08:05:58;;;;;;;6.90;2.30;;;23.80;48.30;;;;;;5058418;28;20029;-69
2021/06/16 08:08:24;;;;;;;9.35;1.80;;;23.80;48.30;;;;;;5053791;28;20484;-68
2021/06/16 08:10:50;;;;;;;8.88;2.28;;;23.80;48.30;;;;;;5055126;28;20468;-69
2021/06/16 08:13:16;;;;;;;5.68;2.00;;;23.80;48.30;;;;;;5056597;28;20036;-71
2021/06/16 08:15:42;;;;;;;5.78;2.10;;;23.90;48.10;;;;;;5052621;28;20025;-69
2021/06/16 08:18:08;;;;;;;5.78;1.83;;;23.90;48.10;;;;;;5047449;28;20051;-70
2021/06/16 08:20:34;;;;;;;5.00;1.88;;;23.90;48.10;;;;;;5051829;28;20028;-69
2021/06/16 08:23:01;;;;;;;6.45;2.08;;;23.90;48.00;;;;;;5050456;28;20361;-69
2021/06/16 08:25:27;;;;;;;5.45;2.17;;;24.00;48.10;;;;;;5041365;28;20025;-71
2021/06/16 08:27:52;;;;;;;5.32;1.70;;;24.00;48.10;;;;;;5049194;28;20064;-68
2021/06/16 08:30:19;;;;;;;6.90;2.00;;;24.00;48.30;;;;;;5051656;28;20025;-69
2021/06/16 08:32:45;;;;;;;4.90;1.60;;;24.00;48.20;;;;;;5045774;28;20111;-70
2021/06/16 08:35:11;;;;;;;6.78;2.10;;;24.00;48.20;;;;;;5032380;28;20053;-70
2021/06/16 08:37:37;;;;;;;7.57;1.75;;;24.00;48.20;;;;;;5042517;28;20033;-69
2021/06/16 08:40:05;;;;;;;6.47;2.00;;;24.00;48.20;;;;;;5048916;28;20025;-70
2021/06/16 08:42:30;;;;;;;7.03;1.88;;;24.00;48.20;;;;;;5046112;28;20114;-69
2021/06/16 08:44:57;;;;;;;5.53;2.00;;;24.00;48.40;;;;;;5051117;28;20397;-68
2021/06/16 08:47:24;;;;;;;8.15;2.20;;;24.00;48.20;;;;;;5051665;28;20095;-70
2021/06/16 08:49:50;;;;;;;8.35;1.95;;;24.00;48.40;;;;;;5051360;28;20037;-69
2021/06/16 08:52:16;;;;;;;5.45;1.83;;;24.10;48.30;;;;;;5047601;28;20041;-69
2021/06/16 08:54:42;;;;;;;6.38;1.95;;;24.10;48.20;;;;;;5031801;28;20025;-71
2021/06/16 08:57:07;;;;;;;5.00;2.00;;;24.10;48.30;;;;;;5039917;28;20040;-69
2021/06/16 08:59:34;;;;;;;7.82;1.70;;;24.10;48.20;;;;;;5039496;28;20071;-68
2021/06/16 09:01:59;;;;;;;6.88;2.63;;;24.10;48.30;;;;;;5050539;28;20120;-68
2021/06/16 09:04:43;;;;;;;5.95;2.03;;;24.10;48.30;;;;;;5053172;28;20064;-69
2021/06/16 09:07:16;;;;;;;5.97;1.80;;;24.20;48.20;;;;;;5050180;28;20025;-68
2021/06/16 09:09:42;;;;;;;7.85;2.00;;;24.20;48.40;;;;;;5048075;28;20036;-70
2021/06/16 09:12:09;;;;;;;8.02;1.88;;;24.20;48.40;;;;;;5048654;28;20101;-71
2021/06/16 09:14:35;;;;;;;7.00;2.03;;;24.20;48.40;;;;;;5036068;28;20080;-70
2021/06/16 09:17:02;;;;;;;4.93;1.58;;;24.20;48.50;;;;;;5031924;28;20064;-70
2021/06/16 09:19:37;;;;;;;5.10;1.70;;;24.20;48.30;;;;;;5051006;28;20376;-70
2021/06/16 09:22:07;;;;;;;6.65;1.42;;;24.20;48.40;;;;;;5050062;28;20108;-71
2021/06/16 09:24:42;;;;;;;4.47;1.77;;;24.20;48.60;;;;;;5050555;28;20028;-72
2021/06/16 09:27:08;;;;;;;6.10;1.90;;;24.30;48.50;;;;;;5041963;28;20032;-73
2021/06/16 09:29:34;;;;;;;4.88;1.52;;;24.30;48.50;;;;;;5031107;28;20025;-72
2021/06/16 09:32:04;;;;;;;6.60;1.77;;;24.30;48.50;;;;;;5041512;28;20041;-73
2021/06/16 09:34:31;;;;;;;4.65;1.83;;;24.30;48.60;;;;;;5051151;28;20511;-73
2021/06/16 09:37:06;;;;;;;4.63;2.08;;;24.30;48.60;;;;;;5050316;28;20029;-73
2021/06/16 09:39:33;;;;;;;6.05;1.85;;;24.30;48.50;;;;;;5051020;28;20057;-72
2021/06/16 09:42:12;;;;;;;7.90;2.22;;;24.40;48.60;;;;;;5050772;28;20029;-73
2021/06/16 09:44:46;;;;;;;6.95;1.85;;;24.30;48.60;;;;;;5049867;28;20044;-74
2021/06/16 09:47:15;;;;;;;8.90;2.20;;;24.40;48.60;;;;;;5050404;28;20033;-74
2021/06/16 09:49:48;;;;;;;4.38;2.15;;;24.40;48.60;;;;;;5050373;28;20029;-71
2021/06/16 09:52:40;;;;;;;7.88;1.70;;;24.40;48.60;;;;;;5050153;28;20033;-71
2021/06/16 09:55:08;;;;;;;6.22;1.80;;;24.40;48.60;;;;;;5029983;28;20509;-70
2021/06/16 09:57:34;;;;;;;3.60;1.75;;;24.40;48.70;;;;;;5030727;28;20025;-68
2021/06/16 10:00:08;;;;;;;5.72;1.77;;;24.40;48.70;;;;;;5030734;28;20040;-74
2021/06/16 10:02:34;;;;;;;6.80;1.85;;;24.40;48.80;;;;;;5036373;28;20104;-71
2021/06/16 10:05:03;;;;;;;5.35;1.88;;;24.40;48.70;;;;;;5049869;28;20033;-70
2021/06/16 10:07:35;;;;;;;4.18;1.63;;;24.50;48.80;;;;;;5049883;28;20460;-73
2021/06/16 10:10:06;;;;;;;5.47;2.35;;;24.50;48.80;;;;;;5050229;28;20029;-72
2021/06/16 10:12:40;;;;;;;6.18;2.45;;;24.50;48.80;;;;;;5049477;28;20124;-72
2021/06/16 10:15:12;;;;;;;4.85;2.05;;;24.50;48.80;;;;;;5049781;28;20072;-69
2021/06/16 10:17:38;;;;;;;7.68;2.10;;;24.50;48.80;;;;;;5040717;28;20029;-71
2021/06/16 10:20:08;;;;;;;5.95;1.90;;;24.50;48.90;;;;;;5051455;28;20503;-74
2021/06/16 10:22:34;;;;;;;10.20;2.10;;;24.60;49.00;;;;;;5042472;28;20034;-69
2021/06/16 10:25:00;;;;;;;4.22;2.00;;;24.60;49.30;;;;;;5039651;28;20040;-74
2021/06/16 10:27:28;;;;;;;6.93;2.08;;;24.60;49.30;;;;;;5045143;28;20029;-70
2021/06/16 10:29:59;;;;;;;5.53;2.55;;;24.70;49.70;;;;;;5036890;28;20075;-74
2021/06/16 10:32:38;;;;;;;5.43;1.85;;;24.70;49.50;;;;;;5042533;28;20461;-75
2021/06/16 10:35:05;;;;;;;7.70;2.30;;;24.70;49.30;;;;;;5053041;28;20027;-71
2021/06/16 10:37:40;;;;;;;6.57;2.10;;;24.70;49.40;;;;;;5053431;28;20438;-73
2021/06/16 10:40:22;;;;;;;6.47;2.08;;;24.70;49.40;;;;;;5053103;28;20032;-71
2021/06/16 10:43:03;;;;;;;7.63;2.35;;;24.80;49.30;;;;;;5053062;28;20021;-71
2021/06/16 10:45:59;;;;;;;8.30;2.42;;;24.80;49.30;;;;;;5035983;28;20136;-71
2021/06/16 10:48:59;;;;;;;4.10;1.85;;;24.80;49.30;;;;;;5052880;28;20068;-73
2021/06/16 10:51:26;;;;;;;4.90;2.33;;;24.80;49.00;;;;;;5053232;28;20060;-74
2021/06/16 10:54:11;;;;;;;6.63;2.10;;;24.90;49.40;;;;;;5039653;28;20152;-74
2021/06/16 10:57:00;;;;;;;8.60;2.10;;;24.90;49.30;;;;;;5033534;28;20017;-72
2021/06/16 10:59:43;;;;;;;6.88;2.60;;;24.90;49.10;;;;;;5034961;28;20034;-69
2021/06/16 11:02:14;;;;;;;4.30;1.52;;;24.90;49.10;;;;;;5050027;28;20362;-72
2021/06/16 11:04:41;;;;;;;7.25;2.72;;;24.90;49.80;;;;;;5058700;28;20037;-71
2021/06/16 11:07:26;;;;;;;5.57;2.10;;;24.90;49.60;;;;;;5051536;28;20480;-71
2021/06/16 11:09:57;;;;;;;;;;;24.90;49.50;;;;;;5051820;28;20492;-70
2021/06/16 11:12:39;;;;;;;9.80;2.70;;;25.00;49.60;;;;;;5053317;28;19969;-70
2021/06/16 11:15:28;;;;;;;5.38;2.38;;;25.00;49.30;;;;;;5053248;28;20029;-70
2021/06/16 11:17:59;;;;;;;8.93;2.35;;;25.00;49.40;;;;;;5051869;28;20025;-71
2021/06/16 11:20:27;;;;;;;7.45;3.00;;;25.00;49.60;;;;;;5053164;28;20021;-70
2021/06/16 11:23:02;;;;;;;5.35;2.47;;;25.10;49.50;;;;;;5039161;28;20428;-71
2021/06/16 11:25:35;;;;;;;5.20;1.80;;;25.20;49.10;;;;;;5052964;28;20040;-71
2021/06/16 11:28:09;;;;;;;6.43;2.55;;;25.10;49.10;;;;;;5052497;28;20035;-70
2021/06/16 11:30:36;;;;;;;5.57;2.10;;;25.20;49.30;;;;;;5052303;28;20055;-70
2021/06/16 11:33:23;;;;;;;6.43;2.67;;;25.20;49.20;;;;;;5052536;28;20032;-70
2021/06/16 11:35:49;;;;;;;6.47;2.78;;;25.30;49.40;;;;;;5050867;28;20736;-70
2021/06/16 11:38:20;;;;;;;3.75;2.30;;;25.30;49.10;;;;;;5053190;28;20099;-70
2021/06/16 11:41:17;;;;;;;10.82;2.92;;;25.40;49.20;;;;;;5052265;28;20059;-70
2021/06/16 11:43:58;;;;;;;4.65;2.30;;;25.40;49.00;;;;;;5052994;28;20028;-69
2021/06/16 11:46:35;;;;;;;4.63;2.00;;;25.40;49.10;;;;;;5053301;28;20043;-69
2021/06/16 11:49:15;;;;;;;7.85;2.15;;;25.40;48.90;;;;;;5052040;28;20040;-69
2021/06/16 11:51:45;;;;;;;4.97;2.30;;;25.40;49.00;;;;;;5041607;28;20048;-69
2021/06/16 11:54:30;;;;;;;5.68;2.33;;;25.50;49.10;;;;;;5043842;28;20029;-71
2021/06/16 11:57:04;;;;;;;8.25;2.63;;;25.50;49.10;;;;;;5052521;28;20029;-70
2021/06/16 11:59:36;;;;;;;4.70;1.88;;;25.60;48.90;;;;;;5052220;28;20032;-71
2021/06/16 12:02:02;;;;;;;5.80;2.47;;;25.70;48.70;;;;;;5042518;28;20045;-68
2021/06/16 12:04:41;;;;;;;6.60;3.13;;;25.70;48.90;;;;;;5050161;28;20037;-69
2021/06/16 12:07:07;;;;;;;5.68;2.80;;;25.80;48.90;;;;;;5042505;28;20064;-73
2021/06/16 12:09:45;;;;;;;6.93;2.97;;;25.80;48.80;;;;;;5041675;28;20603;-71
2021/06/16 12:12:11;;;;;;;6.97;3.20;;;25.90;48.70;;;;;;5042272;28;20466;-68
2021/06/16 12:14:36;;;;;;;6.78;2.85;;;25.90;48.90;;;;;;5052487;28;20116;-67
2021/06/16 12:17:04;;;;;;;6.60;3.08;;;26.00;48.80;;;;;;5052139;28;20036;-69
2021/06/16 12:19:34;;;;;;;8.45;2.92;;;26.00;48.70;;;;;;5051367;28;20060;-70
2021/06/16 12:22:03;;;;;;;7.18;3.15;;;26.10;48.70;;;;;;5042328;28;20029;-70
2021/06/16 12:24:31;;;;;;;8.52;2.95;;;26.10;48.80;;;;;;5049068;28;20036;-70
2021/06/16 12:27:12;;;;;;;5.97;2.92;;;26.20;48.70;;;;;;5051972;28;20134;-69
2021/06/16 12:29:47;;;;;;;5.65;2.78;;;26.10;48.90;;;;;;5049239;28;20025;-71
2021/06/16 12:32:37;;;;;;;6.60;3.00;;;26.20;48.70;;;;;;5050587;28;20028;-71
2021/06/16 12:35:26;;;;;;;6.32;2.85;;;26.30;48.60;;;;;;5052334;28;20503;-71
2021/06/16 12:37:54;;;;;;;6.35;2.85;;;26.40;48.60;;;;;;5050995;28;20025;-68
2021/06/16 12:40:34;;;;;;;9.40;3.40;;;26.40;48.50;;;;;;5051661;28;20107;-70
2021/06/16 12:43:00;;;;;;;6.80;3.03;;;26.40;48.50;;;;;;5052088;28;20069;-69
2021/06/16 12:45:36;;;;;;;6.13;2.58;;;26.50;48.60;;;;;;5051949;28;20111;-70
2021/06/16 12:48:11;;;;;;;7.70;2.85;;;26.50;48.30;;;;;;5049400;28;20480;-70
2021/06/16 12:50:38;;;;;;;7.15;2.72;;;26.50;48.40;;;;;;5040781;28;20051;-69
2021/06/16 12:53:17;;;;;;;5.50;2.72;;;26.60;48.40;;;;;;5032986;28;20061;-70